createdAt,value
2018-09-08T00:01:21.477Z,71.70
2018-09-08T00:03:49.015Z,71.30
2018-09-08T00:06:24.132Z,71.00
2018-09-08T00:08:51.580Z,71.60
2018-09-08T00:11:19.122Z,71.60
2018-09-08T00:13:46.552Z,72.70
2018-09-08T00:16:19.774Z,72.10
2018-09-08T00:18:53.015Z,72.20
2018-09-08T00:21:26.217Z,71.80
2018-09-08T00:23:59.422Z,72.20
2018-09-08T00:26:32.667Z,72.40
2018-09-08T00:29:39.469Z,71.20
2018-09-08T00:32:10.760Z,71.70
2018-09-08T00:34:38.541Z,71.40
2018-09-08T00:37:06.107Z,71.20
2018-09-08T00:39:33.541Z,71.50
2018-09-08T00:42:00.964Z,71.20
2018-09-08T00:44:28.384Z,70.70
2018-09-08T00:46:55.828Z,71.60
2018-09-08T00:49:23.296Z,72.30
2018-09-08T00:51:50.740Z,72.20
2018-09-08T00:54:18.187Z,71.90
2018-09-08T00:56:45.668Z,71.80
2018-09-08T00:59:13.082Z,71.60
2018-09-08T01:01:40.561Z,71.00
2018-09-08T01:04:07.981Z,71.00
2018-09-08T01:06:35.478Z,70.80
2018-09-08T01:09:03.286Z,70.50
2018-09-08T01:11:30.704Z,70.30
2018-09-08T01:13:58.193Z,70.00
2018-09-08T01:16:25.602Z,69.60
2018-09-08T01:18:53.118Z,69.30
2018-09-08T01:21:20.569Z,69.50
2018-09-08T01:23:51.050Z,69.20
2018-09-08T01:26:19.018Z,69.30
2018-09-08T01:28:46.884Z,68.90
2018-09-08T01:31:14.421Z,69.20
2018-09-08T01:33:41.897Z,69.40
2018-09-08T01:36:09.433Z,69.10
2018-09-08T01:38:36.873Z,69.10
2018-09-08T01:41:04.460Z,69.20
2018-09-08T01:43:31.865Z,69.40
2018-09-08T01:45:59.252Z,69.60
2018-09-08T01:48:26.754Z,69.90
2018-09-08T01:50:54.719Z,70.00
2018-09-08T01:53:22.207Z,70.60
2018-09-08T01:55:49.692Z,71.20
2018-09-08T01:58:17.151Z,71.00
2018-09-08T02:00:44.590Z,71.60
2018-09-08T02:03:13.163Z,71.70
2018-09-08T02:05:40.597Z,71.30
2018-09-08T02:08:07.956Z,70.90
2018-09-08T02:10:35.428Z,70.30
2018-09-08T02:13:02.897Z,70.10
2018-09-08T02:15:32.349Z,70.90
2018-09-08T02:17:59.828Z,70.80
2018-09-08T02:20:27.328Z,70.60
2018-09-08T02:22:54.748Z,70.90
2018-09-08T02:25:22.305Z,70.60
2018-09-08T02:27:49.765Z,70.50
2018-09-08T02:30:17.286Z,71.20
2018-09-08T02:32:44.760Z,70.40
2018-09-08T02:35:12.198Z,70.70
2018-09-08T02:37:39.593Z,71.20
2018-09-08T02:40:07.089Z,71.20
2018-09-08T02:42:34.596Z,70.90
2018-09-08T02:45:02.023Z,71.20
2018-09-08T02:47:29.470Z,71.20
2018-09-08T02:50:38.010Z,70.50
2018-09-08T02:53:05.360Z,71.20
2018-09-08T02:55:32.630Z,71.20
2018-09-08T02:57:59.273Z,71.10
2018-09-08T03:00:26.255Z,71.70
2018-09-08T03:02:52.797Z,71.40
2018-09-08T03:05:19.401Z,70.70
2018-09-08T03:07:45.906Z,71.20
2018-09-08T03:10:12.666Z,71.30
2018-09-08T03:12:39.101Z,70.90
2018-09-08T03:15:05.500Z,71.60
2018-09-08T03:17:31.916Z,71.20
2018-09-08T03:19:58.319Z,70.80
2018-09-08T03:22:24.739Z,70.90
2018-09-08T03:24:51.177Z,71.10
2018-09-08T03:27:17.737Z,70.80
2018-09-08T03:29:44.142Z,70.30
2018-09-08T03:32:10.554Z,70.20
2018-09-08T03:34:36.981Z,70.60
2018-09-08T03:37:03.364Z,70.90
2018-09-08T03:39:29.752Z,70.60
2018-09-08T03:41:57.176Z,70.30
2018-09-08T03:44:23.555Z,70.20
2018-09-08T03:46:49.954Z,70.10
2018-09-08T03:49:16.354Z,70.00
2018-09-08T03:51:42.749Z,69.80
2018-09-08T03:54:09.180Z,69.60
2018-09-08T03:56:35.627Z,69.50
2018-09-08T03:59:02.051Z,69.60
2018-09-08T04:01:28.396Z,69.40
2018-09-08T04:03:55.957Z,69.90
2018-09-08T04:06:23.510Z,70.10
2018-09-08T04:08:50.964Z,70.20
2018-09-08T04:11:18.479Z,70.10
2018-09-08T04:13:45.956Z,70.40
2018-09-08T04:16:13.470Z,70.20
2018-09-08T04:18:40.996Z,70.70
2018-09-08T04:21:08.462Z,70.00
2018-09-08T04:23:36.302Z,69.80
2018-09-08T04:26:03.722Z,70.00
2018-09-08T04:28:31.868Z,70.10
2018-09-08T04:30:59.590Z,70.30
2018-09-08T04:33:27.075Z,70.50
2018-09-08T04:35:54.540Z,70.50
2018-09-08T04:38:22.179Z,70.70
2018-09-08T04:40:49.651Z,70.50
2018-09-08T04:43:17.123Z,70.70
2018-09-08T04:45:44.583Z,71.40
2018-09-08T04:48:12.178Z,71.50
2018-09-08T04:50:39.577Z,71.10
2018-09-08T04:53:07.036Z,71.30
2018-09-08T04:55:34.397Z,71.50
2018-09-08T04:58:01.822Z,71.00
2018-09-08T05:00:29.341Z,70.90
2018-09-08T05:02:56.719Z,71.20
2018-09-08T05:05:24.055Z,70.90
2018-09-08T05:07:51.453Z,70.70
2018-09-08T05:10:18.974Z,70.50
2018-09-08T05:12:46.446Z,69.30
2018-09-08T05:15:13.844Z,70.50
2018-09-08T05:17:41.320Z,70.90
2018-09-08T05:20:08.762Z,70.80
2018-09-08T05:22:36.272Z,72.10
2018-09-08T05:25:03.656Z,71.50
2018-09-08T05:27:31.407Z,72.00
2018-09-08T05:29:58.845Z,72.20
2018-09-08T05:32:26.244Z,71.90
2018-09-08T05:34:53.713Z,72.10
2018-09-08T05:37:21.171Z,72.00
2018-09-08T05:39:48.569Z,72.70
2018-09-08T05:42:16.001Z,72.80
2018-09-08T05:44:43.433Z,72.40
2018-09-08T05:47:10.883Z,72.90
2018-09-08T05:49:38.305Z,72.60
2018-09-08T05:52:05.816Z,73.20
2018-09-08T05:54:33.204Z,73.80
2018-09-08T05:57:00.692Z,74.40
2018-09-08T05:59:29.104Z,73.80
2018-09-08T06:01:56.547Z,73.60
2018-09-08T06:04:23.989Z,72.50
2018-09-08T06:06:56.021Z,72.10
2018-09-08T06:09:23.469Z,73.00
2018-09-08T06:11:50.892Z,73.10
2018-09-08T06:14:18.254Z,74.20
2018-09-08T06:16:45.655Z,74.30
2018-09-08T06:19:13.075Z,73.60
2018-09-08T06:21:40.549Z,73.10
2018-09-08T06:24:08.007Z,72.60
2018-09-08T06:26:35.538Z,72.30
2018-09-08T06:29:02.996Z,72.70
2018-09-08T06:31:30.447Z,71.90
2018-09-08T06:33:58.063Z,71.70
2018-09-08T06:36:25.423Z,72.30
2018-09-08T06:38:52.864Z,74.00
2018-09-08T06:41:20.326Z,74.50
2018-09-08T06:43:47.780Z,74.60
2018-09-08T06:46:15.224Z,75.30
2018-09-08T06:48:42.612Z,74.90
2018-09-08T06:51:10.104Z,75.50
2018-09-08T06:53:37.512Z,75.10
2018-09-08T06:56:05.333Z,74.90
2018-09-08T06:58:32.737Z,74.90
2018-09-08T07:01:00.177Z,74.10
2018-09-08T07:03:27.599Z,73.90
2018-09-08T07:05:55.075Z,74.80
2018-09-08T07:08:22.487Z,74.90
2018-09-08T07:10:49.972Z,73.60
2018-09-08T07:13:17.465Z,72.00
2018-09-08T07:15:44.881Z,72.10
2018-09-08T07:18:12.408Z,70.90
2018-09-08T07:20:39.805Z,70.30
2018-09-08T07:23:07.165Z,70.40
2018-09-08T07:25:34.901Z,73.00
2018-09-08T07:28:02.455Z,68.60
2018-09-08T07:30:29.850Z,67.90
2018-09-08T07:32:57.291Z,67.90
2018-09-08T07:35:24.760Z,69.20
2018-09-08T07:37:52.140Z,71.00
2018-09-08T07:40:19.580Z,67.10
2018-09-08T07:42:47.115Z,68.00
2018-09-08T07:45:14.463Z,68.60
2018-09-08T07:47:42.102Z,69.50
2018-09-08T07:50:09.504Z,70.20
2018-09-08T07:52:36.881Z,70.80
2018-09-08T07:55:04.273Z,70.00
2018-09-08T07:57:31.826Z,69.90
2018-09-08T07:59:59.292Z,69.70
2018-09-08T08:02:26.789Z,69.70
2018-09-08T08:04:54.250Z,69.30
2018-09-08T08:07:21.650Z,69.80
2018-09-08T08:09:49.115Z,68.90
2018-09-08T08:12:16.577Z,68.90
2018-09-08T08:14:44.084Z,68.10
2018-09-08T08:17:11.480Z,69.90
2018-09-08T08:19:38.947Z,68.50
2018-09-08T08:22:06.420Z,69.60
2018-09-08T08:24:33.790Z,66.90
2018-09-08T08:27:01.282Z,66.30
2018-09-08T08:29:29.045Z,65.40
2018-09-08T08:31:56.504Z,61.40
2018-09-08T08:34:24.037Z,61.80
2018-09-08T08:36:51.592Z,58.50
2018-09-08T08:39:18.987Z,56.70
2018-09-08T08:41:46.656Z,54.60
2018-09-08T08:44:14.062Z,55.00
2018-09-08T08:46:41.549Z,55.70
2018-09-08T08:49:08.998Z,54.50
2018-09-08T08:51:47.816Z,54.40
2018-09-08T08:54:18.564Z,53.90
2018-09-08T08:56:45.989Z,55.20
2018-09-08T08:59:13.562Z,55.20
2018-09-08T09:01:41.258Z,52.30
2018-09-08T09:04:08.896Z,52.20
2018-09-08T09:06:36.883Z,55.20
2018-09-08T09:09:12.728Z,51.90
2018-09-08T09:11:40.213Z,52.30
2018-09-08T09:14:07.716Z,52.80
2018-09-08T09:16:35.123Z,50.50
2018-09-08T09:19:25.546Z,49.60
2018-09-08T09:22:05.050Z,48.80
2018-09-08T09:24:49.760Z,50.60
2018-09-08T09:27:16.956Z,48.00
2018-09-08T09:29:44.393Z,46.80
2018-09-08T09:32:11.916Z,47.90
2018-09-08T09:34:40.041Z,44.00
2018-09-08T09:37:07.540Z,45.00
2018-09-08T09:39:35.035Z,43.80
2018-09-08T09:42:02.541Z,40.30
2018-09-08T09:44:30.118Z,42.20
2018-09-08T09:46:57.530Z,43.30
2018-09-08T09:49:24.879Z,43.20
2018-09-08T09:51:52.353Z,44.20
2018-09-08T09:54:19.737Z,43.30
2018-09-08T09:56:47.095Z,46.10
2018-09-08T09:59:14.576Z,45.00
2018-09-08T10:01:44.124Z,46.60
2018-09-08T10:04:12.495Z,44.60
2018-09-08T10:06:40.029Z,44.50
2018-09-08T10:09:07.924Z,43.20
2018-09-08T10:11:35.322Z,42.30
2018-09-08T10:14:02.785Z,46.40
2018-09-08T10:16:30.298Z,44.10
2018-09-08T10:18:57.934Z,45.10
2018-09-08T10:21:25.329Z,43.90
2018-09-08T10:24:04.342Z,41.10
2018-09-08T10:26:20.248Z,44.90
2018-09-08T10:28:47.624Z,43.70
2018-09-08T10:31:15.140Z,39.00
2018-09-08T10:33:42.512Z,40.90
2018-09-08T10:36:10.001Z,40.20
2018-09-08T10:38:37.429Z,39.70
2018-09-08T10:41:04.935Z,39.20
2018-09-08T10:43:32.452Z,38.30
2018-09-08T10:45:59.872Z,40.20
2018-09-08T10:48:27.243Z,41.90
2018-09-08T10:50:54.773Z,42.30
2018-09-08T10:53:22.170Z,40.30
2018-09-08T10:55:49.505Z,43.10
2018-09-08T10:58:16.965Z,42.60
2018-09-08T11:00:44.502Z,40.40
2018-09-08T11:03:11.936Z,43.30
2018-09-08T11:05:39.402Z,42.20
2018-09-08T11:08:06.812Z,42.00
2018-09-08T11:10:34.265Z,42.80
2018-09-08T11:13:01.745Z,39.80
2018-09-08T11:15:29.226Z,39.20
2018-09-08T11:17:56.645Z,40.00
2018-09-08T11:20:24.076Z,39.80
2018-09-08T11:22:51.553Z,39.60
2018-09-08T11:25:18.979Z,39.10
2018-09-08T11:27:46.505Z,40.60
2018-09-08T11:30:13.961Z,45.10
2018-09-08T11:32:41.419Z,40.50
2018-09-08T11:35:08.820Z,43.60
2018-09-08T11:37:36.288Z,44.70
2018-09-08T11:40:03.751Z,41.90
2018-09-08T11:42:31.136Z,44.00
2018-09-08T11:44:58.650Z,43.00
2018-09-08T11:47:26.092Z,38.60
2018-09-08T11:49:53.548Z,42.80
2018-09-08T11:52:20.943Z,40.10
2018-09-08T11:54:48.433Z,39.00
2018-09-08T11:57:15.835Z,39.70
2018-09-08T11:59:43.291Z,40.00
2018-09-08T12:02:10.742Z,41.70
2018-09-08T12:04:38.111Z,40.30
2018-09-08T12:07:05.595Z,40.00
2018-09-08T12:09:32.990Z,41.30
2018-09-08T12:12:00.402Z,40.30
2018-09-08T12:14:27.837Z,39.80
2018-09-08T12:16:55.220Z,38.80
2018-09-08T12:19:22.620Z,44.20
2018-09-08T12:21:50.081Z,44.70
2018-09-08T12:24:17.522Z,42.20
2018-09-08T12:26:45.048Z,37.60
2018-09-08T12:29:12.505Z,38.10
2018-09-08T12:31:39.953Z,37.10
2018-09-08T12:34:07.338Z,37.60
2018-09-08T12:36:34.869Z,36.50
2018-09-08T12:39:02.686Z,36.90
2018-09-08T12:41:30.131Z,37.70
2018-09-08T12:43:57.635Z,37.60
2018-09-08T12:46:25.048Z,38.70
2018-09-08T12:48:52.548Z,38.20
2018-09-08T12:51:19.917Z,38.40
2018-09-08T12:53:47.422Z,38.00
2018-09-08T12:56:14.853Z,39.00
2018-09-08T12:58:42.211Z,38.00
2018-09-08T13:01:09.688Z,39.30
2018-09-08T13:03:37.197Z,38.40
2018-09-08T13:06:04.788Z,39.40
2018-09-08T13:08:32.261Z,38.50
2018-09-08T13:10:59.724Z,38.80
2018-09-08T13:13:27.140Z,39.80
2018-09-08T13:15:54.681Z,37.90
2018-09-08T13:18:22.268Z,41.80
2018-09-08T13:20:49.800Z,37.70
2018-09-08T13:23:17.279Z,38.10
2018-09-08T13:25:44.863Z,37.70
2018-09-08T13:28:12.424Z,37.80
2018-09-08T13:30:39.871Z,37.70
2018-09-08T13:33:07.307Z,38.30
2018-09-08T13:35:34.747Z,37.30
2018-09-08T13:38:02.165Z,37.90
2018-09-08T13:40:29.633Z,37.70
2018-09-08T13:42:57.090Z,37.80
2018-09-08T13:45:24.510Z,42.80
2018-09-08T13:47:52.018Z,36.80
2018-09-08T13:50:19.481Z,40.20
2018-09-08T13:52:46.959Z,39.20
2018-09-08T13:55:14.382Z,37.90
2018-09-08T13:57:41.816Z,37.40
2018-09-08T14:00:09.235Z,37.70
2018-09-08T14:02:36.660Z,37.70
2018-09-08T14:05:04.107Z,37.40
2018-09-08T14:07:31.564Z,38.00
2018-09-08T14:09:59.101Z,38.10
2018-09-08T14:12:26.708Z,39.80
2018-09-08T14:14:54.078Z,37.70
2018-09-08T14:17:21.489Z,37.50
2018-09-08T14:19:48.924Z,37.50
2018-09-08T14:22:16.267Z,38.80
2018-09-08T14:24:43.670Z,37.00
2018-09-08T14:27:11.176Z,37.50
2018-09-08T14:29:38.697Z,39.60
2018-09-08T14:32:06.188Z,38.90
2018-09-08T14:34:33.618Z,37.30
2018-09-08T14:37:00.979Z,36.50
2018-09-08T14:39:28.457Z,36.50
2018-09-08T14:41:55.890Z,36.50
2018-09-08T14:44:23.309Z,36.00
2018-09-08T14:46:50.808Z,39.80
2018-09-08T14:49:18.241Z,37.20
2018-09-08T14:51:45.625Z,37.70
2018-09-08T14:54:13.056Z,36.60
2018-09-08T14:56:40.575Z,34.80
2018-09-08T14:59:07.876Z,35.00
2018-09-08T15:01:35.280Z,36.90
2018-09-08T15:04:02.714Z,35.10
2018-09-08T15:06:30.094Z,35.50
2018-09-08T15:08:57.509Z,35.70
2018-09-08T15:11:24.937Z,35.10
2018-09-08T15:13:52.387Z,35.10
2018-09-08T15:16:19.758Z,36.50
2018-09-08T15:18:47.270Z,36.40
2018-09-08T15:21:14.716Z,36.60
2018-09-08T15:23:42.200Z,36.40
2018-09-08T15:26:09.674Z,35.00
2018-09-08T15:28:37.089Z,34.40
2018-09-08T15:31:04.566Z,37.30
2018-09-08T15:33:31.914Z,33.50
2018-09-08T15:35:59.345Z,35.70
2018-09-08T15:38:26.785Z,36.20
2018-09-08T15:40:54.214Z,36.90
2018-09-08T15:43:21.692Z,36.40
2018-09-08T15:45:49.092Z,36.10
2018-09-08T15:48:16.430Z,36.50
2018-09-08T15:50:43.828Z,36.60
2018-09-08T15:53:11.236Z,37.40
2018-09-08T15:55:38.698Z,38.20
2018-09-08T15:58:06.078Z,37.40
2018-09-08T16:00:33.511Z,36.40
2018-09-08T16:03:01.372Z,39.00
2018-09-08T16:05:28.699Z,38.90
2018-09-08T16:07:56.116Z,37.10
2018-09-08T16:10:23.585Z,37.50
2018-09-08T16:12:51.011Z,38.80
2018-09-08T16:15:18.357Z,38.10
2018-09-08T16:17:45.769Z,38.10
2018-09-08T16:20:13.252Z,37.90
2018-09-08T16:22:40.658Z,37.40
2018-09-08T16:25:08.097Z,39.60
2018-09-08T16:27:35.492Z,41.00
2018-09-08T16:30:02.978Z,38.00
2018-09-08T16:32:30.407Z,38.60
2018-09-08T16:34:57.774Z,37.90
2018-09-08T16:37:25.237Z,39.30
2018-09-08T16:39:52.657Z,38.70
2018-09-08T16:42:20.088Z,39.00
2018-09-08T16:44:47.479Z,39.30
2018-09-08T16:47:14.952Z,39.60
2018-09-08T16:49:42.405Z,41.60
2018-09-08T16:52:09.962Z,43.10
2018-09-08T16:54:37.501Z,44.70
2018-09-08T16:57:04.966Z,43.90
2018-09-08T16:59:32.418Z,44.80
2018-09-08T17:01:59.861Z,46.00
2018-09-08T17:04:27.275Z,46.40
2018-09-08T17:06:54.739Z,47.20
2018-09-08T17:09:22.092Z,45.90
2018-09-08T17:11:49.508Z,47.10
2018-09-08T17:14:16.881Z,47.60
2018-09-08T17:16:44.274Z,48.30
2018-09-08T17:19:11.785Z,47.90
2018-09-08T17:21:39.202Z,48.90
2018-09-08T17:24:06.696Z,47.70
2018-09-08T17:26:34.179Z,48.60
2018-09-08T17:29:01.608Z,50.10
2018-09-08T17:31:29.053Z,52.90
2018-09-08T17:33:56.489Z,52.80
2018-09-08T17:36:23.914Z,53.30
2018-09-08T17:38:51.358Z,52.70
2018-09-08T17:41:18.728Z,52.70
2018-09-08T17:43:46.172Z,52.20
2018-09-08T17:46:13.670Z,51.40
2018-09-08T17:48:41.130Z,50.70
2018-09-08T17:51:08.558Z,50.90
2018-09-08T17:53:35.993Z,50.70
2018-09-08T17:56:03.524Z,50.90
2018-09-08T17:58:31.035Z,51.20
2018-09-08T18:00:58.440Z,50.30
2018-09-08T18:03:25.883Z,50.40
2018-09-08T18:05:53.405Z,50.60
2018-09-08T18:08:25.503Z,51.10
2018-09-08T18:10:53.386Z,51.40
2018-09-08T18:13:21.038Z,52.50
2018-09-08T18:15:48.474Z,52.20
2018-09-08T18:18:15.904Z,51.60
2018-09-08T18:20:43.418Z,52.30
2018-09-08T18:23:10.915Z,52.60
2018-09-08T18:25:38.295Z,52.80
2018-09-08T18:28:06.532Z,52.00
2018-09-08T18:30:33.992Z,51.70
2018-09-08T18:33:01.365Z,52.50
2018-09-08T18:35:28.749Z,52.20
2018-09-08T18:37:56.192Z,52.50
2018-09-08T18:40:23.789Z,52.40
2018-09-08T18:42:51.189Z,52.70
2018-09-08T18:45:18.731Z,52.60
2018-09-08T18:47:46.066Z,52.40
2018-09-08T18:50:13.466Z,52.80
2018-09-08T18:52:40.842Z,52.90
2018-09-08T18:55:08.243Z,53.30
2018-09-08T18:57:35.640Z,52.80
2018-09-08T19:00:03.345Z,52.70
2018-09-08T19:02:30.877Z,52.90
2018-09-08T19:04:58.361Z,53.20
2018-09-08T19:07:25.935Z,52.70
2018-09-08T19:09:59.166Z,52.70
2018-09-08T19:12:26.553Z,53.50
2018-09-08T19:14:59.715Z,52.70
2018-09-08T19:17:27.230Z,52.50
2018-09-08T19:20:00.592Z,53.40
2018-09-08T19:22:28.334Z,53.00
2018-09-08T19:24:55.703Z,52.80
2018-09-08T19:27:23.209Z,53.10
2018-09-08T19:29:50.628Z,53.10
2018-09-08T19:32:19.171Z,53.20
2018-09-08T19:34:52.036Z,53.90
2018-09-08T19:37:19.514Z,54.00
2018-09-08T19:39:46.988Z,53.80
2018-09-08T19:42:14.383Z,53.80
2018-09-08T19:44:41.835Z,53.40
2018-09-08T19:47:15.036Z,54.10
2018-09-08T19:49:42.383Z,54.10
2018-09-08T19:52:15.375Z,54.60
2018-09-08T19:54:42.866Z,54.80
2018-09-08T19:57:16.047Z,54.80
2018-09-08T19:59:43.558Z,54.70
2018-09-08T20:02:10.930Z,55.10
2018-09-08T20:04:38.341Z,54.80
2018-09-08T20:07:05.716Z,54.70
2018-09-08T20:09:33.251Z,54.60
2018-09-08T20:12:00.620Z,54.40
2018-09-08T20:14:28.053Z,54.60
2018-09-08T20:16:55.487Z,55.20
2018-09-08T20:19:22.973Z,55.70
2018-09-08T20:21:50.379Z,55.80
2018-09-08T20:24:17.812Z,56.20
2018-09-08T20:26:45.304Z,56.00
2018-09-08T20:29:12.716Z,55.20
2018-09-08T20:31:40.102Z,55.40
2018-09-08T20:34:07.664Z,56.00
2018-09-08T20:36:35.048Z,56.00
2018-09-08T20:39:02.600Z,56.50
2018-09-08T20:41:30.072Z,56.30
2018-09-08T20:43:57.558Z,56.60
2018-09-08T20:46:24.928Z,56.60
2018-09-08T20:48:52.318Z,57.00
2018-09-08T20:51:19.783Z,57.40
2018-09-08T20:53:47.362Z,57.60
2018-09-08T20:56:14.769Z,57.60
2018-09-08T20:58:42.217Z,56.90
2018-09-08T21:01:09.661Z,56.50
2018-09-08T21:03:37.156Z,57.00
2018-09-08T21:06:04.558Z,57.00
2018-09-08T21:08:35.579Z,57.70
2018-09-08T21:11:02.997Z,58.10
2018-09-08T21:13:30.418Z,58.00
2018-09-08T21:15:57.782Z,58.20
2018-09-08T21:18:25.320Z,58.40
2018-09-08T21:20:52.752Z,59.40
2018-09-08T21:23:20.195Z,58.90
2018-09-08T21:25:47.574Z,59.40
2018-09-08T21:28:15.041Z,59.20
2018-09-08T21:30:42.499Z,59.20
2018-09-08T21:33:09.879Z,59.20
2018-09-08T21:35:37.332Z,59.10
2018-09-08T21:38:04.823Z,59.80
2018-09-08T21:40:32.202Z,59.50
2018-09-08T21:42:59.629Z,59.80
2018-09-08T21:45:27.034Z,60.00
2018-09-08T21:47:54.385Z,59.90
2018-09-08T21:50:21.855Z,59.80
2018-09-08T21:52:49.353Z,59.70
2018-09-08T21:55:16.691Z,60.10
2018-09-08T21:57:44.161Z,60.20
2018-09-08T22:00:11.638Z,60.30
2018-09-08T22:02:39.077Z,60.80
2018-09-08T22:05:06.619Z,60.80
2018-09-08T22:07:34.094Z,60.70
2018-09-08T22:10:01.538Z,61.50
2018-09-08T22:12:28.989Z,60.00
2018-09-08T22:14:56.516Z,60.00
2018-09-08T22:17:23.934Z,60.00
2018-09-08T22:19:51.395Z,60.10
2018-09-08T22:22:18.854Z,61.00
2018-09-08T22:24:46.202Z,61.20
2018-09-08T22:27:13.650Z,61.90
2018-09-08T22:29:41.095Z,61.60
2018-09-08T22:32:08.598Z,62.30
2018-09-08T22:34:35.960Z,62.90
2018-09-08T22:37:03.371Z,62.20
2018-09-08T22:39:30.804Z,61.70
2018-09-08T22:41:58.269Z,62.00
2018-09-08T22:44:25.728Z,62.30
2018-09-08T22:46:53.179Z,62.10
2018-09-08T22:49:20.577Z,62.10
2018-09-08T22:51:47.955Z,62.60
2018-09-08T22:54:15.397Z,62.30
2018-09-08T22:56:42.889Z,62.60
2018-09-08T22:59:12.347Z,62.80
2018-09-08T23:01:42.075Z,62.80
2018-09-08T23:04:11.409Z,62.60
2018-09-08T23:06:41.028Z,62.90
2018-09-08T23:09:08.607Z,62.90
2018-09-08T23:11:35.998Z,63.40
2018-09-08T23:14:03.351Z,63.50
2018-09-08T23:16:30.804Z,64.90
2018-09-08T23:18:58.183Z,65.40
2018-09-08T23:21:25.658Z,65.90
2018-09-08T23:23:53.082Z,66.40
2018-09-08T23:26:20.491Z,65.00
2018-09-08T23:28:48.047Z,65.90
2018-09-08T23:31:15.479Z,66.40
2018-09-08T23:33:42.903Z,66.50
2018-09-08T23:36:10.343Z,66.10
2018-09-08T23:38:37.709Z,65.60
2018-09-08T23:41:05.191Z,65.10
2018-09-08T23:43:32.588Z,64.80
2018-09-08T23:45:59.993Z,64.90
2018-09-08T23:48:27.312Z,65.10
2018-09-08T23:50:54.757Z,65.10
2018-09-08T23:53:22.148Z,65.90
2018-09-08T23:55:49.547Z,65.70
2018-09-08T23:58:17.147Z,65.00
